KWWR/WWR METAR and TAF weather

Enter ICAO airport designator
Station Type Date Time Source
KWWR METAR 2019/10/15 21:35 UTC NOAA

KWWR 152135Z AUTO 02015G24KT 10SM CLR 20/00 A3009 RMK AO2


Station Type Date Time Source
KWWR Decoded METAR 2019/10/15 21:35 UTC NOAA

Woodward, West Woodward Airport, OK, United States (KWWR) 36-26-12N 099-31-16W 667M
Oct 15, 2019 - 05:35 PM EDT / 2019.10.15 2135 UTC
Wind: from the NNE (020 degrees) at 17 MPH (15 KT) gusting to 28 MPH (24 KT):0
Visibility: 10 mile(s):0
Sky conditions: clear
Temperature: 68 F (20 C)
Dew Point: 32 F (0 C)
Relative Humidity: 26%
Pressure (altimeter): 30.09 in. Hg (1018 hPa)
ob: KWWR 152135Z AUTO 02015G24KT 10SM CLR 20/00 A3009 RMK AO2
cycle: 21

Station Type Date Time Source
KWWR TAF 2019/10/15 18:42 UTC NOAA

TAF KWWR 151741Z 1518/1618 36016G25KT P6SM SKC
FM160000 36009KT P6SM SKC
FM160600 VRB05KT P6SM SKC

Example: see airport list